Private Wetterstation Wechselburg
Wetterdaten: Donnerstag, 11.10.2012
Datum Zeit Temp. +2m Bodentemp. Temp.+5cm Temp. Wind Windchill X Diff Temp. Feuchte +2m Feuchte +5cm Sonnenschein Luftdruck Regen Wind Richtung Richtung Sonnenschein UV Taupunkt Windchill Windben
11.10.2012 00:00 4,8 C 15,9 C 6,5 C 6,1 C 6,1 C 1,3 C 87 % 89 % 0 % 1017,6 hPa 0,0 l/m 0,0 km/h (0 Bft) S-SO 157 0 min 0,0 UV-I 2,8 C 6,1 C 0,0 km/h (0 Bft)
11.10.2012 00:05 4,9 C 15,9 C 6,5 C 6,1 C 6,1 C 1,2 C 87 % 89 % 0 % 1017,6 hPa 0,0 l/m 0,0 km/h (0 Bft) W 270 0 min 0,0 UV-I 2,9 C 6,1 C 0,0 km/h (0 Bft)
11.10.2012 00:10 5,1 C 15,9 C 6,5 C 6,2 C 6,2 C 1,1 C 87 % 89 % 0 % 1017,6 hPa 0,0 l/m 0,0 km/h (0 Bft) SW 225 0 min 0,0 UV-I 3,1 C 6,2 C 0,0 km/h (0 Bft)
11.10.2012 00:15 5,0 C 15,9 C 6,5 C 6,2 C 6,2 C 1,2 C 87 % 89 % 0 % 1017,6 hPa 0,0 l/m 0,0 km/h (0 Bft) W 270 0 min 0,0 UV-I 3,0 C 6,2 C 0,0 km/h (0 Bft)
11.10.2012 00:20 5,1 C 15,9 C 6,6 C 6,4 C 6,4 C 1,3 C 87 % 88 % 0 % 1017,6 hPa 0,0 l/m 0,0 km/h (0 Bft) S-SW 202 0 min 0,0 UV-I 3,1 C 6,4 C 0,0 km/h (0 Bft)
11.10.2012 00:25 5,2 C 15,8 C 6,7 C 6,4 C 6,4 C 1,2 C 87 % 88 % 0 % 1017,6 hPa 0,0 l/m 0,2 km/h (0 Bft) SW 225 0 min 0,0 UV-I 3,2 C 6,4 C 4,5 km/h (1 Bft)
11.10.2012 00:30 5,3 C 15,8 C 6,7 C 6,5 C 6,5 C 1,2 C 86 % 88 % 0 % 1017,6 hPa 0,0 l/m 1,0 km/h (0 Bft) W-SW 247 0 min 0,0 UV-I 3,2 C 6,5 C 0,0 km/h (0 Bft)
11.10.2012 00:35 5,4 C 15,8 C 6,7 C 6,5 C 6,5 C 1,1 C 87 % 88 % 0 % 1017,6 hPa 0,0 l/m 1,0 km/h (0 Bft) W-SW 247 0 min 0,0 UV-I 3,4 C 6,5 C 0,0 km/h (0 Bft)
11.10.2012 00:41 5,5 C 15,9 C 6,7 C 6,4 C 6,4 C 0,9 C 86 % 88 % 0 % 1017,7 hPa 0,0 l/m 0,2 km/h (0 Bft) N 0 0 min 0,0 UV-I 3,3 C 6,4 C 0,0 km/h (0 Bft)
11.10.2012 00:55 5,5 C 15,9 C 6,7 C 6,4 C 6,4 C 0,9 C 86 % 88 % 0 % 1017,7 hPa 0,0 l/m 0,3 km/h (0 Bft) W 270 0 min 0,0 UV-I 3,3 C 6,4 C 2,4 km/h (1 Bft)
11.10.2012 01:00 5,5 C 15,8 C 6,7 C 6,5 C 6,5 C 1,0 C 86 % 88 % 0 % 1017,7 hPa 0,0 l/m 0,5 km/h (0 Bft) W-SW 247 0 min 0,0 UV-I 3,3 C 6,5 C 2,1 km/h (1 Bft)
11.10.2012 01:05 5,6 C 15,9 C 6,7 C 6,6 C 6,6 C 1,0 C 85 % 88 % 0 % 1017,7 hPa 0,0 l/m 0,6 km/h (0 Bft) S-SO 157 0 min 0,0 UV-I 3,3 C 6,6 C 0,0 km/h (0 Bft)
11.10.2012 01:10 5,7 C 15,9 C 6,7 C 6,6 C 6,6 C 0,9 C 86 % 88 % 0 % 1017,7 hPa 0,0 l/m 0,3 km/h (0 Bft) O-NO 67 0 min 0,0 UV-I 3,5 C 6,6 C 0,0 km/h (0 Bft)
11.10.2012 01:15 5,6 C 15,8 C 6,7 C 6,6 C 6,6 C 1,0 C 85 % 88 % 0 % 1017,7 hPa 0,0 l/m 0,0 km/h (0 Bft) NO 45 0 min 0,0 UV-I 3,3 C 6,6 C 0,0 km/h (0 Bft)
11.10.2012 01:20 5,6 C 15,8 C 6,7 C 6,6 C 6,6 C 1,0 C 85 % 88 % 0 % 1017,7 hPa 0,0 l/m 0,0 km/h (0 Bft) O 90 0 min 0,0 UV-I 3,3 C 6,6 C 0,0 km/h (0 Bft)
11.10.2012 01:25 5,6 C 15,8 C 6,7 C 6,6 C 6,6 C 1,0 C 85 % 88 % 0 % 1017,7 hPa 0,0 l/m 0,0 km/h (0 Bft) O-NO 67 0 min 0,0 UV-I 3,3 C 6,6 C 0,0 km/h (0 Bft)
11.10.2012 01:30 5,8 C 15,9 C 6,8 C 6,7 C 6,7 C 0,9 C 85 % 88 % 0 % 1017,7 hPa 0,0 l/m 0,3 km/h (0 Bft) O-NO 67 0 min 0,0 UV-I 3,5 C 6,7 C 0,0 km/h (0 Bft)
11.10.2012 01:35 5,9 C 15,8 C 6,8 C 6,7 C 6,7 C 0,8 C 85 % 88 % 0 % 1017,7 hPa 0,0 l/m 0,3 km/h (0 Bft) O 90 0 min 0,0 UV-I 3,6 C 6,7 C 0,0 km/h (0 Bft)
11.10.2012 01:40 5,7 C 15,8 C 6,8 C 6,6 C 6,6 C 0,9 C 85 % 88 % 0 % 1017,7 hPa 0,0 l/m 0,0 km/h (0 Bft) O 90 0 min 0,0 UV-I 3,4 C 6,6 C 0,0 km/h (0 Bft)
11.10.2012 01:45 5,8 C 15,8 C 6,8 C 6,5 C 6,5 C 0,7 C 85 % 88 % 0 % 1018,1 hPa 0,0 l/m 0,0 km/h (0 Bft) S 180 0 min 0,0 UV-I 3,5 C 6,5 C 0,0 km/h (0 Bft)
11.10.2012 01:50 5,7 C 15,8 C 6,8 C 6,5 C 6,5 C 0,8 C 84 % 88 % 0 % 1018,1 hPa 0,0 l/m 0,0 km/h (0 Bft) SO 135 0 min 0,0 UV-I 3,2 C 6,5 C 0,0 km/h (0 Bft)
11.10.2012 01:55 5,8 C 15,7 C 6,8 C 6,5 C 6,5 C 0,7 C 84 % 88 % 0 % 1018,1 hPa 0,0 l/m 0,0 km/h (0 Bft) W-SW 247 0 min 0,0 UV-I 3,3 C 6,5 C 0,0 km/h (0 Bft)
11.10.2012 02:00 5,7 C 15,7 C 6,8 C 6,4 C 6,4 C 0,7 C 84 % 88 % 0 % 1018,1 hPa 0,0 l/m 0,0 km/h (0 Bft) S 180 0 min 0,0 UV-I 3,2 C 6,4 C 0,0 km/h (0 Bft)
11.10.2012 02:05 5,7 C 15,7 C 6,8 C 6,4 C 6,4 C 0,7 C 84 % 88 % 0 % 1017,8 hPa 0,0 l/m 0,0 km/h (0 Bft) SW 225 0 min 0,0 UV-I 3,2 C 6,4 C 0,0 km/h (0 Bft)
11.10.2012 02:10 5,7 C 15,7 C 6,8 C 6,4 C 6,4 C 0,7 C 84 % 88 % 0 % 1017,8 hPa 0,0 l/m 0,2 km/h (0 Bft) W-SW 247 0 min 0,0 UV-I 3,2 C 6,4 C 1,6 km/h (1 Bft)
11.10.2012 02:15 5,7 C 15,7 C 6,7 C 6,3 C 6,3 C 0,6 C 84 % 88 % 0 % 1017,8 hPa 0,0 l/m 0,3 km/h (0 Bft) SW 225 0 min 0,0 UV-I 3,2 C 6,3 C 1,8 km/h (1 Bft)
11.10.2012 02:20 5,6 C 15,7 C 6,7 C 6,1 C 6,1 C 0,5 C 84 % 88 % 0 % 1017,8 hPa 0,0 l/m 0,3 km/h (0 Bft) W-SW 247 0 min 0,0 UV-I 3,1 C 6,1 C 0,0 km/h (0 Bft)
11.10.2012 02:25 5,6 C 15,8 C 6,7 C 6,0 C 6,0 C 0,4 C 84 % 88 % 0 % 1017,7 hPa 0,0 l/m 0,3 km/h (0 Bft) W-SW 247 0 min 0,0 UV-I 3,1 C 6,0 C 2,6 km/h (1 Bft)
11.10.2012 02:30 5,6 C 15,8 C 6,6 C 6,1 C 6,1 C 0,5 C 84 % 88 % 0 % 1017,7 hPa 0,0 l/m 1,1 km/h (1 Bft) W-SW 247 0 min 0,0 UV-I 3,1 C 6,1 C 0,0 km/h (0 Bft)
11.10.2012 02:35 5,6 C 15,6 C 6,7 C 6,1 C 6,1 C 0,5 C 85 % 88 % 0 % 1017,7 hPa 0,0 l/m 1,6 km/h (1 Bft) S-SW 202 0 min 0,0 UV-I 3,3 C 6,1 C 3,1 km/h (1 Bft)
11.10.2012 02:40 5,7 C 15,6 C 6,7 C 6,3 C 6,3 C 0,6 C 85 % 88 % 0 % 1017,7 hPa 0,0 l/m 1,9 km/h (1 Bft) W 270 0 min 0,0 UV-I 3,4 C 6,3 C 5,3 km/h (1 Bft)
11.10.2012 02:45 5,6 C 15,6 C 6,8 C 6,4 C 6,4 C 0,8 C 85 % 88 % 0 % 1017,8 hPa 0,0 l/m 2,3 km/h (1 Bft) W 270 0 min 0,0 UV-I 3,3 C 6,4 C 3,5 km/h (1 Bft)
11.10.2012 02:50 5,7 C 15,6 C 6,8 C 6,4 C 6,4 C 0,7 C 85 % 88 % 0 % 1017,8 hPa 0,0 l/m 2,6 km/h (1 Bft) W 270 0 min 0,0 UV-I 3,4 C 6,4 C 5,3 km/h (1 Bft)
11.10.2012 02:55 5,7 C 15,6 C 6,9 C 6,5 C 6,5 C 0,8 C 84 % 88 % 0 % 1017,8 hPa 0,0 l/m 2,7 km/h (1 Bft) SW 225 0 min 0,0 UV-I 3,2 C 6,5 C 4,8 km/h (1 Bft)
11.10.2012 03:00 5,7 C 15,6 C 6,8 C 6,4 C 6,4 C 0,7 C 84 % 88 % 0 % 1017,8 hPa 0,0 l/m 2,3 km/h (1 Bft) SW 225 0 min 0,0 UV-I 3,2 C 6,4 C 2,1 km/h (1 Bft)
11.10.2012 03:05 5,7 C 15,6 C 6,8 C 6,4 C 6,4 C 0,7 C 84 % 88 % 0 % 1017,8 hPa 0,0 l/m 1,8 km/h (1 Bft) W-SW 247 0 min 0,0 UV-I 3,2 C 6,4 C 5,5 km/h (1 Bft)
11.10.2012 03:10 5,7 C 15,6 C 6,7 C 6,2 C 6,2 C 0,5 C 84 % 88 % 0 % 1017,8 hPa 0,0 l/m 1,3 km/h (1 Bft) W-SW 247 0 min 0,0 UV-I 3,2 C 6,2 C 0,0 km/h (0 Bft)
11.10.2012 03:15 5,6 C 15,6 C 6,7 C 6,1 C 6,1 C 0,5 C 84 % 88 % 0 % 1017,8 hPa 0,0 l/m 1,6 km/h (1 Bft) W-SW 247 0 min 0,0 UV-I 3,1 C 6,1 C 2,7 km/h (1 Bft)
11.10.2012 03:20 5,6 C 15,6 C 6,6 C 6,1 C 6,1 C 0,5 C 84 % 88 % 0 % 1017,8 hPa 0,0 l/m 1,0 km/h (0 Bft) W-SW 247 0 min 0,0 UV-I 3,1 C 6,1 C 0,0 km/h (0 Bft)
11.10.2012 03:25 5,5 C 15,6 C 6,6 C 6,0 C 6,0 C 0,5 C 84 % 88 % 0 % 1017,7 hPa 0,0 l/m 1,0 km/h (0 Bft) W-SW 247 0 min 0,0 UV-I 3,0 C 6,0 C 2,1 km/h (1 Bft)
11.10.2012 03:30 5,5 C 15,7 C 6,5 C 5,9 C 5,9 C 0,4 C 84 % 88 % 0 % 1017,7 hPa 0,0 l/m 0,6 km/h (0 Bft) W-SW 247 0 min 0,0 UV-I 3,0 C 5,9 C 1,6 km/h (1 Bft)
11.10.2012 03:35 5,4 C 15,6 C 6,4 C 5,7 C 5,7 C 0,3 C 84 % 87 % 0 % 1017,7 hPa 0,0 l/m 0,6 km/h (0 Bft) SW 225 0 min 0,0 UV-I 2,9 C 5,7 C 2,1 km/h (1 Bft)
11.10.2012 03:40 5,3 C 15,8 C 6,4 C 5,5 C 5,5 C 0,2 C 84 % 87 % 0 % 1017,7 hPa 0,0 l/m 0,5 km/h (0 Bft) W-SW 247 0 min 0,0 UV-I 2,8 C 5,5 C 0,0 km/h (0 Bft)
11.10.2012 03:45 5,3 C 15,8 C 6,3 C 5,3 C 5,3 C 0,0 C 84 % 87 % 0 % 1017,6 hPa 0,0 l/m 0,2 km/h (0 Bft) S 180 0 min 0,0 UV-I 2,8 C 5,3 C 0,0 km/h (0 Bft)
11.10.2012 03:50 5,2 C 15,8 C 6,0 C 5,2 C 5,1 C 0,0 C 84 % 87 % 0 % 1017,6 hPa 0,0 l/m 0,0 km/h (0 Bft) SW 225 0 min 0,0 UV-I 2,7 C 5,1 C 0,0 km/h (0 Bft)
11.10.2012 03:55 5,1 C 15,8 C 6,1 C 5,1 C 5,0 C 0,0 C 84 % 88 % 0 % 1017,6 hPa 0,0 l/m 0,0 km/h (0 Bft) O-NO 67 0 min 0,0 UV-I 2,6 C 5,0 C 0,0 km/h (0 Bft)
11.10.2012 04:00 4,9 C 15,8 C 6,0 C 5,1 C 5,1 C 0,2 C 85 % 88 % 0 % 1017,6 hPa 0,0 l/m 0,0 km/h (0 Bft) S-SO 157 0 min 0,0 UV-I 2,6 C 5,1 C 0,0 km/h (0 Bft)
11.10.2012 04:05 4,9 C 15,8 C 6,1 C 5,1 C 5,1 C 0,2 C 85 % 88 % 0 % 1017,6 hPa 0,0 l/m 0,0 km/h (0 Bft) SO 135 0 min 0,0 UV-I 2,6 C 5,1 C 0,0 km/h (0 Bft)
11.10.2012 04:10 4,9 C 15,8 C 6,3 C 5,4 C 5,4 C 0,5 C 85 % 89 % 0 % 1017,6 hPa 0,0 l/m 0,0 km/h (0 Bft) SO 135 0 min 0,0 UV-I 2,6 C 5,4 C 0,0 km/h (0 Bft)
11.10.2012 04:15 4,9 C 15,9 C 6,2 C 5,5 C 5,5 C 0,6 C 86 % 88 % 0 % 1017,6 hPa 0,0 l/m 0,0 km/h (0 Bft) SO 135 0 min 0,0 UV-I 2,8 C 5,5 C 0,0 km/h (0 Bft)
11.10.2012 04:20 4,9 C 15,8 C 6,3 C 5,6 C 5,6 C 0,7 C 86 % 89 % 0 % 1017,6 hPa 0,0 l/m 0,0 km/h (0 Bft) O-NO 67 0 min 0,0 UV-I 2,8 C 5,6 C 0,0 km/h (0 Bft)
11.10.2012 04:25 4,9 C 15,8 C 6,2 C 5,7 C 5,7 C 0,8 C 86 % 89 % 0 % 1017,7 hPa 0,0 l/m 0,0 km/h (0 Bft) SO 135 0 min 0,0 UV-I 2,8 C 5,7 C 0,0 km/h (0 Bft)
11.10.2012 04:30 4,9 C 15,8 C 6,3 C 5,7 C 5,7 C 0,8 C 86 % 89 % 0 % 1017,7 hPa 0,0 l/m 0,0 km/h (0 Bft) O-NO 67 0 min 0,0 UV-I 2,8 C 5,7 C 0,0 km/h (0 Bft)
11.10.2012 04:35 4,9 C 15,8 C 6,3 C 5,7 C 5,7 C 0,8 C 86 % 89 % 0 % 1017,7 hPa 0,0 l/m 0,0 km/h (0 Bft) O-NO 67 0 min 0,0 UV-I 2,8 C 5,7 C 0,0 km/h (0 Bft)
11.10.2012 04:40 4,9 C 15,8 C 6,3 C 5,7 C 5,7 C 0,8 C 86 % 89 % 0 % 1017,7 hPa 0,0 l/m 0,0 km/h (0 Bft) O-SO 112 0 min 0,0 UV-I 2,8 C 5,7 C 0,0 km/h (0 Bft)
11.10.2012 04:45 4,9 C 15,8 C 6,3 C 5,7 C 5,7 C 0,8 C 86 % 89 % 0 % 1017,4 hPa 0,0 l/m 0,0 km/h (0 Bft) SO 135 0 min 0,0 UV-I 2,8 C 5,7 C 0,0 km/h (0 Bft)
11.10.2012 04:50 4,9 C 15,8 C 6,2 C 5,8 C 5,8 C 0,9 C 86 % 89 % 0 % 1017,4 hPa 0,0 l/m 0,0 km/h (0 Bft) N-NW 337 0 min 0,0 UV-I 2,8 C 5,8 C 0,0 km/h (0 Bft)
11.10.2012 04:55 4,9 C 15,7 C 6,3 C 5,9 C 5,9 C 1,0 C 86 % 89 % 0 % 1017,4 hPa 0,0 l/m 0,0 km/h (0 Bft) NW 315 0 min 0,0 UV-I 2,8 C 5,9 C 0,0 km/h (0 Bft)
11.10.2012 05:00 5,1 C 15,7 C 6,3 C 5,9 C 5,9 C 0,8 C 86 % 89 % 0 % 1017,4 hPa 0,0 l/m 0,0 km/h (0 Bft) SW 225 0 min 0,0 UV-I 3,0 C 5,9 C 0,0 km/h (0 Bft)
11.10.2012 05:05 5,1 C 15,7 C 6,3 C 5,9 C 5,9 C 0,8 C 86 % 89 % 0 % 1017,8 hPa 0,0 l/m 0,0 km/h (0 Bft) SW 225 0 min 0,0 UV-I 3,0 C 5,9 C 0,0 km/h (0 Bft)
11.10.2012 05:10 5,1 C 15,7 C 6,4 C 5,9 C 5,9 C 0,8 C 86 % 89 % 0 % 1017,8 hPa 0,0 l/m 0,0 km/h (0 Bft) S-SO 157 0 min 0,0 UV-I 3,0 C 5,9 C 0,0 km/h (0 Bft)
11.10.2012 05:15 5,1 C 15,7 C 6,4 C 6,0 C 6,0 C 0,9 C 86 % 89 % 0 % 1017,8 hPa 0,0 l/m 0,0 km/h (0 Bft) SW 225 0 min 0,0 UV-I 3,0 C 6,0 C 0,0 km/h (0 Bft)
11.10.2012 05:20 5,1 C 15,7 C 6,4 C 6,0 C 6,0 C 0,9 C 86 % 89 % 0 % 1017,8 hPa 0,0 l/m 0,0 km/h (0 Bft) O-NO 67 0 min 0,0 UV-I 3,0 C 6,0 C 0,0 km/h (0 Bft)
11.10.2012 05:25 5,1 C 15,8 C 6,4 C 6,1 C 6,1 C 1,0 C 86 % 89 % 0 % 1017,8 hPa 0,0 l/m 0,0 km/h (0 Bft) O-NO 67 0 min 0,0 UV-I 3,0 C 6,1 C 0,0 km/h (0 Bft)
11.10.2012 05:30 5,1 C 15,8 C 6,5 C 6,1 C 6,1 C 1,0 C 86 % 89 % 0 % 1017,8 hPa 0,0 l/m 0,0 km/h (0 Bft) SO 135 0 min 0,0 UV-I 3,0 C 6,1 C 0,0 km/h (0 Bft)
11.10.2012 05:35 5,1 C 15,7 C 6,4 C 6,1 C 6,1 C 1,0 C 86 % 89 % 0 % 1017,8 hPa 0,0 l/m 0,0 km/h (0 Bft) O-SO 112 0 min 0,0 UV-I 3,0 C 6,1 C 0,0 km/h (0 Bft)
11.10.2012 05:40 5,1 C 15,7 C 6,5 C 6,0 C 6,0 C 0,9 C 86 % 89 % 0 % 1017,8 hPa 0,0 l/m 0,0 km/h (0 Bft) O-SO 112 0 min 0,0 UV-I 3,0 C 6,0 C 0,0 km/h (0 Bft)
11.10.2012 05:45 5,1 C 15,7 C 6,4 C 5,9 C 5,9 C 0,8 C 86 % 89 % 0 % 1017,8 hPa 0,0 l/m 0,0 km/h (0 Bft) S 180 0 min 0,0 UV-I 3,0 C 5,9 C 0,0 km/h (0 Bft)
11.10.2012 05:50 5,1 C 15,7 C 6,3 C 5,6 C 5,6 C 0,5 C 86 % 89 % 0 % 1017,8 hPa 0,0 l/m 0,0 km/h (0 Bft) O-SO 112 0 min 0,0 UV-I 3,0 C 5,6 C 0,0 km/h (0 Bft)
11.10.2012 05:55 5,1 C 15,7 C 6,2 C 5,5 C 5,5 C 0,4 C 86 % 88 % 0 % 1017,8 hPa 0,0 l/m 0,0 km/h (0 Bft) NO 45 0 min 0,0 UV-I 3,0 C 5,5 C 0,0 km/h (0 Bft)
11.10.2012 06:00 5,0 C 15,7 C 6,0 C 5,4 C 5,4 C 0,4 C 86 % 88 % 0 % 1017,8 hPa 0,0 l/m 0,0 km/h (0 Bft) NO 45 0 min 0,0 UV-I 2,9 C 5,4 C 0,0 km/h (0 Bft)
11.10.2012 06:05 4,9 C 15,7 C 6,0 C 5,2 C 5,2 C 0,3 C 86 % 88 % 0 % 1017,8 hPa 0,0 l/m 0,0 km/h (0 Bft) NO 45 0 min 0,0 UV-I 2,8 C 5,2 C 0,0 km/h (0 Bft)
11.10.2012 06:10 4,8 C 15,8 C 6,0 C 5,1 C 5,1 C 0,3 C 86 % 88 % 0 % 1017,8 hPa 0,0 l/m 0,0 km/h (0 Bft) O-NO 67 0 min 0,0 UV-I 2,7 C 5,1 C 0,0 km/h (0 Bft)
11.10.2012 06:15 4,9 C 15,8 C 6,0 C 5,3 C 5,3 C 0,4 C 86 % 89 % 0 % 1017,8 hPa 0,0 l/m 0,0 km/h (0 Bft) O-SO 112 0 min 0,0 UV-I 2,8 C 5,3 C 0,0 km/h (0 Bft)
11.10.2012 06:20 4,8 C 15,8 C 6,1 C 5,5 C 5,5 C 0,7 C 86 % 89 % 0 % 1017,8 hPa 0,0 l/m 0,0 km/h (0 Bft) O 90 0 min 0,0 UV-I 2,7 C 5,5 C 0,0 km/h (0 Bft)
11.10.2012 06:25 4,8 C 15,8 C 6,1 C 5,7 C 5,7 C 0,9 C 86 % 89 % 0 % 1018,0 hPa 0,0 l/m 0,0 km/h (0 Bft) NW 315 0 min 0,0 UV-I 2,7 C 5,7 C 0,0 km/h (0 Bft)
11.10.2012 06:30 4,8 C 15,8 C 6,2 C 5,7 C 5,7 C 0,9 C 86 % 89 % 0 % 1018,0 hPa 0,0 l/m 0,0 km/h (0 Bft) SO 135 0 min 0,0 UV-I 2,7 C 5,7 C 0,0 km/h (0 Bft)
11.10.2012 06:35 4,8 C 15,8 C 6,3 C 5,8 C 5,8 C 1,0 C 87 % 89 % 0 % 1018,0 hPa 0,0 l/m 0,0 km/h (0 Bft) SO 135 0 min 0,0 UV-I 2,8 C 5,8 C 0,0 km/h (0 Bft)
11.10.2012 06:46 4,9 C 15,8 C 6,2 C 5,8 C 5,8 C 0,9 C 87 % 90 % 0 % 1017,4 hPa 0,0 l/m 0,0 km/h (0 Bft) N 0 0 min 0,0 UV-I 2,9 C 5,8 C 0,0 km/h (0 Bft)
11.10.2012 06:55 4,9 C 15,8 C 6,3 C 5,8 C 5,8 C 0,9 C 87 % 90 % 0 % 1017,4 hPa 0,0 l/m 0,0 km/h (0 Bft) O-NO 67 0 min 0,0 UV-I 2,9 C 5,8 C 0,0 km/h (0 Bft)
11.10.2012 07:00 4,9 C 15,7 C 6,2 C 5,9 C 5,9 C 1,0 C 87 % 90 % 0 % 1017,4 hPa 0,0 l/m 0,0 km/h (0 Bft) O-NO 67 0 min 0,0 UV-I 2,9 C 5,9 C 0,0 km/h (0 Bft)
11.10.2012 07:05 5,1 C 15,7 C 6,3 C 5,9 C 5,9 C 0,8 C 87 % 90 % 0 % 1017,6 hPa 0,0 l/m 0,0 km/h (0 Bft) N-NO 22 0 min 0,0 UV-I 3,1 C 5,9 C 0,0 km/h (0 Bft)
11.10.2012 07:10 5,1 C 15,7 C 6,3 C 6,0 C 6,0 C 0,9 C 87 % 89 % 0 % 1017,6 hPa 0,0 l/m 0,0 km/h (0 Bft) O 90 0 min 0,0 UV-I 3,1 C 6,0 C 0,0 km/h (0 Bft)
11.10.2012 07:15 5,1 C 15,7 C 6,3 C 6,0 C 6,0 C 0,9 C 87 % 89 % 0 % 1017,6 hPa 0,0 l/m 0,0 km/h (0 Bft) NO 45 0 min 0,0 UV-I 3,1 C 6,0 C 0,0 km/h (0 Bft)
11.10.2012 07:20 5,1 C 15,7 C 6,4 C 6,1 C 6,1 C 1,0 C 87 % 89 % 0 % 1017,6 hPa 0,0 l/m 0,0 km/h (0 Bft) O-NO 67 0 min 0,0 UV-I 3,1 C 6,1 C 0,0 km/h (0 Bft)
11.10.2012 07:25 5,1 C 15,7 C 6,4 C 6,1 C 6,1 C 1,0 C 87 % 89 % 0 % 1017,8 hPa 0,0 l/m 0,2 km/h (0 Bft) O-NO 67 0 min 0,0 UV-I 3,1 C 6,1 C 0,0 km/h (0 Bft)
11.10.2012 07:30 5,0 C 15,7 C 6,3 C 6,1 C 6,1 C 1,1 C 86 % 89 % 0 % 1017,8 hPa 0,0 l/m 0,2 km/h (0 Bft) S 180 0 min 0,0 UV-I 2,9 C 6,1 C 0,0 km/h (0 Bft)
11.10.2012 07:35 5,0 C 15,6 C 6,4 C 6,1 C 6,1 C 1,1 C 86 % 89 % 0 % 1017,8 hPa 0,0 l/m 0,0 km/h (0 Bft) W-SW 247 0 min 0,0 UV-I 2,9 C 6,1 C 0,0 km/h (0 Bft)
11.10.2012 07:40 5,1 C 15,6 C 6,4 C 6,2 C 6,2 C 1,1 C 86 % 89 % 29 % 1017,8 hPa 0,0 l/m 0,0 km/h (0 Bft) O-SO 112 5 min 0,0 UV-I 3,0 C 6,2 C 0,0 km/h (0 Bft)
11.10.2012 07:45 5,1 C 15,6 C 6,4 C 6,2 C 6,2 C 1,1 C 86 % 89 % 29 % 1017,7 hPa 0,0 l/m 0,0 km/h (0 Bft) S 180 5 min 0,0 UV-I 3,0 C 6,2 C 0,0 km/h (0 Bft)
11.10.2012 07:50 5,1 C 15,6 C 6,4 C 6,3 C 6,3 C 1,2 C 86 % 89 % 32 % 1017,7 hPa 0,0 l/m 0,3 km/h (0 Bft) S 180 5 min 0,0 UV-I 3,0 C 6,3 C 2,7 km/h (1 Bft)
11.10.2012 07:55 5,2 C 15,6 C 6,4 C 6,4 C 6,4 C 1,2 C 86 % 89 % 32 % 1017,7 hPa 0,0 l/m 0,6 km/h (0 Bft) SO 135 5 min 0,0 UV-I 3,1 C 6,4 C 0,0 km/h (0 Bft)
11.10.2012 08:00 5,2 C 15,6 C 6,5 C 6,5 C 6,5 C 1,3 C 86 % 89 % 34 % 1017,7 hPa 0,0 l/m 0,5 km/h (0 Bft) S 180 5 min 0,0 UV-I 3,1 C 6,5 C 1,6 km/h (1 Bft)
11.10.2012 08:05 5,3 C 15,6 C 6,7 C 6,6 C 6,6 C 1,3 C 86 % 89 % 34 % 1017,7 hPa 0,0 l/m 0,2 km/h (0 Bft) SO 135 5 min 0,0 UV-I 3,2 C 6,6 C 0,0 km/h (0 Bft)
11.10.2012 08:10 5,5 C 15,6 C 6,7 C 6,7 C 6,7 C 1,2 C 86 % 89 % 32 % 1017,7 hPa 0,0 l/m 0,3 km/h (0 Bft) S-SO 157 5 min 0,0 UV-I 3,3 C 6,7 C 0,0 km/h (0 Bft)
11.10.2012 08:15 5,5 C 15,6 C 6,7 C 6,9 C 6,9 C 1,4 C 86 % 88 % 37 % 1017,7 hPa 0,0 l/m 0,2 km/h (0 Bft) S-SO 157 5 min 0,0 UV-I 3,3 C 6,9 C 1,8 km/h (1 Bft)
11.10.2012 08:20 5,5 C 15,6 C 6,8 C 7,0 C 7,0 C 1,5 C 86 % 88 % 39 % 1017,7 hPa 0,0 l/m 0,2 km/h (0 Bft) S 180 5 min 0,0 UV-I 3,3 C 7,0 C 0,0 km/h (0 Bft)
11.10.2012 08:25 5,6 C 15,6 C 6,9 C 7,2 C 7,2 C 1,6 C 86 % 88 % 42 % 1017,8 hPa 0,0 l/m 0,2 km/h (0 Bft) SW 225 5 min 0,0 UV-I 3,4 C 7,2 C 0,0 km/h (0 Bft)
11.10.2012 08:30 5,6 C 15,5 C 6,8 C 7,2 C 7,2 C 1,6 C 85 % 88 % 42 % 1017,8 hPa 0,0 l/m 0,2 km/h (0 Bft) SO 135 5 min 0,0 UV-I 3,3 C 7,2 C 0,0 km/h (0 Bft)
11.10.2012 08:35 5,7 C 15,5 C 6,9 C 7,2 C 7,2 C 1,5 C 85 % 88 % 39 % 1017,8 hPa 0,0 l/m 0,2 km/h (0 Bft) S 180 0 min 0,0 UV-I 3,4 C 7,2 C 0,0 km/h (0 Bft)
11.10.2012 08:40 5,8 C 15,5 C 6,9 C 7,3 C 7,3 C 1,5 C 85 % 88 % 39 % 1017,8 hPa 0,0 l/m 0,2 km/h (0 Bft) W-SW 247 0 min 0,0 UV-I 3,5 C 7,3 C 0,0 km/h (0 Bft)
11.10.2012 08:45 5,9 C 15,5 C 7,0 C 7,4 C 7,4 C 1,5 C 85 % 88 % 39 % 1017,6 hPa 0,0 l/m 0,0 km/h (0 Bft) SW 225 0 min 0,0 UV-I 3,6 C 7,4 C 0,0 km/h (0 Bft)
11.10.2012 08:50 5,9 C 15,5 C 7,1 C 7,5 C 7,5 C 1,6 C 85 % 88 % 42 % 1017,6 hPa 0,0 l/m 0,0 km/h (0 Bft) SW 225 0 min 0,0 UV-I 3,6 C 7,5 C 0,0 km/h (0 Bft)
11.10.2012 08:55 6,0 C 15,5 C 7,1 C 7,7 C 7,7 C 1,7 C 85 % 88 % 45 % 1017,6 hPa 0,0 l/m 0,2 km/h (0 Bft) W 270 0 min 0,0 UV-I 3,7 C 7,7 C 0,0 km/h (0 Bft)
11.10.2012 09:00 6,1 C 15,4 C 7,2 C 7,9 C 7,9 C 1,8 C 85 % 88 % 47 % 1017,6 hPa 0,0 l/m 0,2 km/h (0 Bft) S-SW 202 0 min 0,0 UV-I 3,8 C 7,9 C 0,0 km/h (0 Bft)
11.10.2012 09:05 6,3 C 15,4 C 7,2 C 8,0 C 8,0 C 1,7 C 85 % 88 % 45 % 1017,8 hPa 0,0 l/m 0,3 km/h (0 Bft) S 180 0 min 0,0 UV-I 4,0 C 8,0 C 0,0 km/h (0 Bft)
11.10.2012 09:10 6,3 C 15,4 C 7,5 C 8,3 C 8,3 C 2,0 C 85 % 87 % 53 % 1017,8 hPa 0,0 l/m 0,3 km/h (0 Bft) W-SW 247 0 min 0,0 UV-I 4,0 C 8,3 C 0,0 km/h (0 Bft)
11.10.2012 09:15 6,5 C 15,4 C 7,4 C 8,3 C 8,3 C 1,8 C 84 % 87 % 47 % 1017,8 hPa 0,0 l/m 0,2 km/h (0 Bft) S 180 0 min 0,0 UV-I 4,0 C 8,3 C 0,0 km/h (0 Bft)
11.10.2012 09:20 6,5 C 15,4 C 7,5 C 8,5 C 8,5 C 2,0 C 84 % 87 % 53 % 1017,8 hPa 0,0 l/m 0,2 km/h (0 Bft) S-SW 202 0 min 0,0 UV-I 4,0 C 8,5 C 0,0 km/h (0 Bft)
11.10.2012 09:25 6,7 C 15,4 C 7,6 C 8,6 C 8,6 C 1,9 C 84 % 87 % 50 % 1017,9 hPa 0,0 l/m 0,5 km/h (0 Bft) W-SW 247 0 min 0,0 UV-I 4,2 C 8,6 C 0,0 km/h (0 Bft)
11.10.2012 09:30 6,7 C 15,4 C 7,6 C 8,8 C 8,8 C 2,1 C 84 % 87 % 55 % 1017,9 hPa 0,0 l/m 0,6 km/h (0 Bft) O-NO 67 0 min 0,0 UV-I 4,2 C 8,8 C 0,0 km/h (0 Bft)
11.10.2012 09:35 6,8 C 15,4 C 7,7 C 8,9 C 8,9 C 2,1 C 83 % 87 % 55 % 1017,9 hPa 0,0 l/m 0,6 km/h (0 Bft) O 90 0 min 0,0 UV-I 4,1 C 8,9 C 0,0 km/h (0 Bft)
11.10.2012 09:40 7,0 C 15,4 C 7,8 C 9,3 C 9,3 C 2,3 C 83 % 87 % 61 % 1017,9 hPa 0,0 l/m 0,3 km/h (0 Bft) S-SO 157 0 min 0,1 UV-I 4,3 C 9,3 C 0,0 km/h (0 Bft)
11.10.2012 09:45 7,1 C 15,4 C 7,9 C 9,4 C 9,4 C 2,3 C 83 % 86 % 61 % 1017,9 hPa 0,0 l/m 0,3 km/h (0 Bft) SW 225 0 min 0,1 UV-I 4,4 C 9,4 C 3,9 km/h (1 Bft)
11.10.2012 09:50 7,2 C 15,4 C 8,0 C 9,6 C 9,6 C 2,4 C 83 % 86 % 63 % 1017,9 hPa 0,0 l/m 0,5 km/h (0 Bft) S 180 0 min 0,1 UV-I 4,5 C 9,6 C 3,1 km/h (1 Bft)
11.10.2012 09:55 7,5 C 15,4 C 8,1 C 9,7 C 9,7 C 2,2 C 83 % 86 % 58 % 1017,9 hPa 0,0 l/m 0,5 km/h (0 Bft) S 180 0 min 0,1 UV-I 4,8 C 9,7 C 0,0 km/h (0 Bft)
11.10.2012 10:00 7,5 C 15,4 C 8,1 C 9,9 C 9,9 C 2,4 C 82 % 86 % 63 % 1017,9 hPa 0,0 l/m 1,0 km/h (0 Bft) W-SW 247 0 min 0,2 UV-I 4,6 C 9,9 C 4,2 km/h (1 Bft)
11.10.2012 10:05 7,5 C 15,4 C 8,3 C 9,7 C 9,7 C 2,2 C 81 % 86 % 58 % 1018,1 hPa 0,0 l/m 1,3 km/h (1 Bft) S-SW 202 0 min 0,2 UV-I 4,5 C 9,7 C 2,7 km/h (1 Bft)
11.10.2012 10:10 7,5 C 15,4 C 8,4 C 9,7 C 9,7 C 2,2 C 81 % 86 % 58 % 1018,1 hPa 0,0 l/m 1,0 km/h (0 Bft) O-NO 67 0 min 0,3 UV-I 4,5 C 9,7 C 0,0 km/h (0 Bft)
11.10.2012 10:15 7,6 C 15,4 C 8,4 C 10,0 C 10,0 C 2,4 C 82 % 86 % 63 % 1018,1 hPa 0,0 l/m 0,5 km/h (0 Bft) SW 225 0 min 0,3 UV-I 4,7 C 10,0 C 0,0 km/h (0 Bft)
11.10.2012 10:20 7,7 C 15,4 C 8,7 C 10,5 C 10,5 C 2,8 C 82 % 86 % 74 % 1018,1 hPa 0,0 l/m 0,5 km/h (0 Bft) S 180 0 min 0,3 UV-I 4,8 C 10,5 C 0,0 km/h (0 Bft)
11.10.2012 10:25 7,9 C 15,4 C 8,8 C 10,8 C 10,8 C 2,9 C 82 % 85 % 76 % 1017,9 hPa 0,0 l/m 0,8 km/h (0 Bft) W-SW 247 0 min 0,3 UV-I 5,0 C 10,8 C 3,1 km/h (1 Bft)
11.10.2012 10:30 8,0 C 15,4 C 8,9 C 11,1 C 11,1 C 3,1 C 81 % 85 % 82 % 1017,9 hPa 0,0 l/m 1,0 km/h (0 Bft) W-SW 247 0 min 0,4 UV-I 4,9 C 11,1 C 0,0 km/h (0 Bft)
11.10.2012 10:35 8,2 C 15,4 C 8,9 C 11,1 C 11,1 C 2,9 C 80 % 84 % 76 % 1017,9 hPa 0,0 l/m 1,0 km/h (0 Bft) W-NW 292 0 min 0,4 UV-I 5,0 C 11,1 C 0,0 km/h (0 Bft)
11.10.2012 10:40 8,3 C 15,4 C 9,1 C 11,1 C 11,1 C 2,8 C 80 % 84 % 74 % 1017,9 hPa 0,0 l/m 0,8 km/h (0 Bft) W-SW 247 0 min 0,5 UV-I 5,1 C 11,1 C 3,9 km/h (1 Bft)
11.10.2012 10:45 8,3 C 15,4 C 8,9 C 10,8 C 10,8 C 2,5 C 80 % 84 % 66 % 1017,9 hPa 0,0 l/m 1,3 km/h (1 Bft) S-SW 202 0 min 0,5 UV-I 5,1 C 10,8 C 0,0 km/h (0 Bft)
11.10.2012 10:50 8,3 C 15,4 C 9,0 C 10,5 C 10,5 C 2,2 C 80 % 84 % 58 % 1017,9 hPa 0,0 l/m 1,3 km/h (1 Bft) W-SW 247 0 min 0,5 UV-I 5,1 C 10,5 C 0,0 km/h (0 Bft)
11.10.2012 10:55 8,3 C 15,4 C 9,1 C 10,6 C 10,6 C 2,3 C 80 % 84 % 61 % 1017,9 hPa 0,0 l/m 1,0 km/h (0 Bft) SW 225 0 min 0,5 UV-I 5,1 C 10,6 C 1,9 km/h (1 Bft)
11.10.2012 11:00 8,4 C 15,4 C 9,1 C 10,4 C 10,4 C 2,0 C 80 % 84 % 53 % 1017,9 hPa 0,0 l/m 1,8 km/h (1 Bft) S-SO 157 0 min 0,6 UV-I 5,2 C 10,4 C 0,0 km/h (0 Bft)
11.10.2012 11:05 8,5 C 15,4 C 9,0 C 10,2 C 10,2 C 1,7 C 80 % 84 % 45 % 1017,8 hPa 0,0 l/m 1,8 km/h (1 Bft) W-SW 247 0 min 0,6 UV-I 5,3 C 10,2 C 3,2 km/h (1 Bft)
11.10.2012 11:10 8,4 C 15,4 C 8,9 C 10,0 C 10,0 C 1,6 C 80 % 84 % 42 % 1017,8 hPa 0,0 l/m 2,4 km/h (1 Bft) W-NW 292 0 min 0,6 UV-I 5,2 C 10,0 C 5,8 km/h (2 Bft)
11.10.2012 11:15 8,4 C 15,4 C 8,9 C 9,9 C 9,9 C 1,5 C 80 % 84 % 39 % 1017,8 hPa 0,0 l/m 2,7 km/h (1 Bft) W 270 0 min 0,6 UV-I 5,2 C 9,9 C 2,4 km/h (1 Bft)
11.10.2012 11:20 8,4 C 15,4 C 8,8 C 9,7 C 9,7 C 1,3 C 80 % 84 % 34 % 1017,8 hPa 0,0 l/m 2,1 km/h (1 Bft) S-SW 202 0 min 0,6 UV-I 5,2 C 9,7 C 2,4 km/h (1 Bft)
11.10.2012 11:25 8,4 C 15,4 C 8,9 C 9,8 C 9,8 C 1,4 C 80 % 84 % 37 % 1017,6 hPa 0,0 l/m 2,3 km/h (1 Bft) SW 225 0 min 0,6 UV-I 5,2 C 9,8 C 3,7 km/h (1 Bft)
11.10.2012 11:30 8,4 C 15,4 C 9,1 C 10,0 C 10,0 C 1,6 C 80 % 84 % 42 % 1017,6 hPa 0,0 l/m 1,8 km/h (1 Bft) W-SW 247 0 min 0,7 UV-I 5,2 C 10,0 C 5,5 km/h (1 Bft)
11.10.2012 11:35 8,7 C 15,4 C 9,2 C 10,1 C 10,1 C 1,4 C 79 % 84 % 37 % 1017,6 hPa 0,0 l/m 1,8 km/h (1 Bft) W 270 0 min 0,8 UV-I 5,3 C 10,1 C 0,0 km/h (0 Bft)
11.10.2012 11:40 8,7 C 15,4 C 9,3 C 10,4 C 10,4 C 1,7 C 79 % 84 % 45 % 1017,6 hPa 0,0 l/m 1,4 km/h (1 Bft) S-SW 202 0 min 0,8 UV-I 5,3 C 10,4 C 2,1 km/h (1 Bft)
11.10.2012 11:45 8,9 C 15,4 C 9,5 C 10,8 C 10,8 C 1,9 C 79 % 83 % 50 % 1017,4 hPa 0,0 l/m 0,6 km/h (0 Bft) O-NO 67 0 min 0,8 UV-I 5,5 C 10,8 C 0,0 km/h (0 Bft)
11.10.2012 11:50 8,9 C 15,3 C 9,5 C 11,1 C 11,1 C 2,2 C 78 % 83 % 58 % 1017,4 hPa 0,0 l/m 1,3 km/h (1 Bft) S-SO 157 0 min 0,8 UV-I 5,3 C 11,1 C 0,0 km/h (0 Bft)
11.10.2012 11:55 9,1 C 15,3 C 9,6 C 11,4 C 11,4 C 2,3 C 78 % 83 % 61 % 1017,4 hPa 0,0 l/m 1,1 km/h (1 Bft) S-SW 202 0 min 0,8 UV-I 5,5 C 11,4 C 1,8 km/h (1 Bft)
11.10.2012 12:00 9,2 C 15,3 C 9,9 C 11,3 C 11,3 C 2,1 C 78 % 82 % 55 % 1017,4 hPa 0,0 l/m 1,1 km/h (1 Bft) NW 315 0 min 0,9 UV-I 5,6 C 11,3 C 1,8 km/h (1 Bft)
11.10.2012 12:05 9,2 C 15,3 C 10,0 C 11,6 C 11,6 C 2,4 C 78 % 82 % 63 % 1017,4 hPa 0,0 l/m 1,4 km/h (1 Bft) O-NO 67 0 min 1,0 UV-I 5,6 C 11,6 C 3,2 km/h (1 Bft)
11.10.2012 12:10 9,6 C 15,3 C 10,4 C 11,8 C 11,8 C 2,2 C 75 % 81 % 58 % 1017,4 hPa 0,0 l/m 2,6 km/h (1 Bft) O-NO 67 0 min 1,0 UV-I 5,4 C 11,8 C 2,3 km/h (1 Bft)
11.10.2012 12:15 9,9 C 15,3 C 10,5 C 12,0 C 12,0 C 2,1 C 75 % 80 % 55 % 1017,4 hPa 0,0 l/m 3,7 km/h (1 Bft) NO 45 0 min 1,0 UV-I 5,7 C 12,0 C 2,1 km/h (1 Bft)
11.10.2012 12:20 9,9 C 15,3 C 10,7 C 12,5 C 12,5 C 2,6 C 75 % 80 % 68 % 1017,4 hPa 0,0 l/m 3,1 km/h (1 Bft) NO 45 0 min 1,0 UV-I 5,7 C 12,5 C 3,9 km/h (1 Bft)
11.10.2012 12:25 10,1 C 15,3 C 10,7 C 13,4 C 13,4 C 3,3 C 74 % 79 % 87 % 1017,2 hPa 0,0 l/m 3,2 km/h (1 Bft) O-NO 67 5 min 1,0 UV-I 5,7 C 13,4 C 4,8 km/h (1 Bft)
11.10.2012 12:30 10,4 C 15,3 C 11,1 C 15,6 C 15,6 C 5,2 C 74 % 79 % 100 % 1017,2 hPa 0,0 l/m 2,3 km/h (1 Bft) SO 135 5 min 1,0 UV-I 6,0 C 15,6 C 1,6 km/h (1 Bft)
11.10.2012 12:35 10,5 C 15,3 C 11,2 C 17,5 C 17,5 C 7,0 C 74 % 79 % 100 % 1017,2 hPa 0,0 l/m 1,4 km/h (1 Bft) SW 225 5 min 1,0 UV-I 6,1 C 17,5 C 1,6 km/h (1 Bft)
11.10.2012 12:46 11,3 C 15,4 C 11,7 C 20,6 C 20,6 C 9,3 C 70 % 77 % 100 % 1017,2 hPa 0,0 l/m 1,9 km/h (1 Bft) N 0 11 min 1,5 UV-I 6,0 C 20,6 C 0,0 km/h (0 Bft)
11.10.2012 12:55 11,5 C 15,4 C 11,7 C 21,2 C 21,2 C 9,7 C 70 % 76 % 100 % 1017,2 hPa 0,0 l/m 1,4 km/h (1 Bft) O-NO 67 9 min 1,7 UV-I 6,2 C 21,2 C 0,0 km/h (0 Bft)
11.10.2012 13:00 11,3 C 15,4 C 11,7 C 20,1 C 20,1 C 8,8 C 68 % 74 % 100 % 1017,2 hPa 0,0 l/m 2,7 km/h (1 Bft) N-NW 337 5 min 1,6 UV-I 5,6 C 20,1 C 7,6 km/h (2 Bft)
11.10.2012 13:05 11,3 C 15,4 C 11,7 C 19,5 C 19,5 C 8,2 C 67 % 73 % 100 % 1017,0 hPa 0,0 l/m 3,5 km/h (1 Bft) NW 315 5 min 1,2 UV-I 5,4 C 19,5 C 8,9 km/h (2 Bft)
11.10.2012 13:10 11,5 C 15,4 C 11,9 C 19,4 C 19,4 C 7,9 C 66 % 72 % 100 % 1017,0 hPa 0,0 l/m 3,4 km/h (1 Bft) O-NO 67 5 min 1,1 UV-I 5,4 C 19,4 C 2,4 km/h (1 Bft)
11.10.2012 13:15 11,5 C 15,4 C 11,8 C 19,0 C 19,0 C 7,5 C 65 % 71 % 100 % 1017,0 hPa 0,0 l/m 3,9 km/h (1 Bft) O-NO 67 5 min 1,1 UV-I 5,2 C 19,0 C 6,0 km/h (2 Bft)
11.10.2012 13:20 11,3 C 15,4 C 11,9 C 18,2 C 18,2 C 6,9 C 66 % 72 % 100 % 1017,0 hPa 0,0 l/m 4,5 km/h (1 Bft) O-NO 67 5 min 1,1 UV-I 5,2 C 18,2 C 9,0 km/h (2 Bft)
11.10.2012 13:25 11,4 C 15,4 C 11,9 C 18,0 C 18,0 C 6,6 C 66 % 71 % 100 % 1016,8 hPa 0,0 l/m 4,3 km/h (1 Bft) O-NO 67 5 min 1,3 UV-I 5,3 C 18,0 C 4,3 km/h (1 Bft)
11.10.2012 13:30 11,3 C 15,4 C 11,7 C 18,2 C 18,2 C 6,9 C 67 % 71 % 100 % 1016,8 hPa 0,0 l/m 3,4 km/h (1 Bft) O-NO 67 5 min 1,0 UV-I 5,4 C 18,2 C 3,1 km/h (1 Bft)
11.10.2012 13:35 11,4 C 15,4 C 11,9 C 18,2 C 18,2 C 6,8 C 66 % 71 % 100 % 1016,8 hPa 0,0 l/m 3,9 km/h (1 Bft) O-SO 112 5 min 1,1 UV-I 5,3 C 18,2 C 7,6 km/h (2 Bft)
11.10.2012 13:40 11,5 C 15,4 C 11,9 C 18,3 C 18,3 C 6,8 C 64 % 68 % 100 % 1016,8 hPa 0,0 l/m 3,2 km/h (1 Bft) O-NO 67 5 min 1,2 UV-I 4,9 C 18,3 C 1,6 km/h (1 Bft)
11.10.2012 13:45 11,5 C 15,4 C 11,7 C 18,3 C 18,3 C 6,8 C 62 % 67 % 100 % 1016,6 hPa 0,0 l/m 3,2 km/h (1 Bft) O-SO 112 5 min 1,1 UV-I 4,5 C 18,3 C 3,7 km/h (1 Bft)
11.10.2012 13:50 11,3 C 15,4 C 11,6 C 17,5 C 17,5 C 6,2 C 62 % 66 % 100 % 1016,6 hPa 0,0 l/m 3,9 km/h (1 Bft) O-SO 112 5 min 1,1 UV-I 4,3 C 17,5 C 5,1 km/h (1 Bft)
11.10.2012 13:55 11,4 C 15,4 C 11,6 C 17,8 C 17,8 C 6,4 C 63 % 67 % 100 % 1016,6 hPa 0,0 l/m 3,2 km/h (1 Bft) N-NW 337 5 min 1,0 UV-I 4,6 C 17,8 C 1,8 km/h (1 Bft)
11.10.2012 14:00 11,6 C 15,4 C 11,9 C 18,6 C 18,6 C 7,0 C 63 % 66 % 100 % 1016,6 hPa 0,0 l/m 2,3 km/h (1 Bft) NO 45 5 min 1,0 UV-I 4,8 C 18,6 C 1,9 km/h (1 Bft)
11.10.2012 14:05 11,5 C 15,4 C 11,6 C 17,3 C 17,3 C 5,8 C 64 % 68 % 100 % 1016,2 hPa 0,0 l/m 3,2 km/h (1 Bft) O 90 5 min 0,9 UV-I 4,9 C 17,3 C 5,0 km/h (1 Bft)
11.10.2012 14:10 11,3 C 15,4 C 11,4 C 14,8 C 14,8 C 3,5 C 64 % 68 % 92 % 1016,2 hPa 0,0 l/m 2,9 km/h (1 Bft) N-NW 337 5 min 0,8 UV-I 4,7 C 14,8 C 0,0 km/h (0 Bft)
11.10.2012 14:15 11,2 C 15,5 C 11,4 C 14,0 C 14,0 C 2,8 C 66 % 69 % 74 % 1016,2 hPa 0,0 l/m 1,6 km/h (1 Bft) O-NO 67 0 min 0,8 UV-I 5,1 C 14,0 C 1,6 km/h (1 Bft)
11.10.2012 14:20 11,2 C 15,5 C 11,2 C 13,2 C 13,2 C 2,0 C 65 % 70 % 53 % 1016,2 hPa 0,0 l/m 1,3 km/h (1 Bft) O 90 0 min 0,8 UV-I 4,9 C 13,2 C 3,4 km/h (1 Bft)
11.10.2012 14:25 11,2 C 15,5 C 11,2 C 12,8 C 12,8 C 1,6 C 66 % 70 % 42 % 1016,1 hPa 0,0 l/m 1,9 km/h (1 Bft) NO 45 0 min 0,8 UV-I 5,1 C 12,8 C 0,0 km/h (0 Bft)
11.10.2012 14:30 11,2 C 15,5 C 11,2 C 12,7 C 12,7 C 1,5 C 65 % 70 % 39 % 1016,1 hPa 0,0 l/m 1,8 km/h (1 Bft) O-NO 67 0 min 0,8 UV-I 4,9 C 12,7 C 2,3 km/h (1 Bft)
11.10.2012 14:35 11,2 C 15,5 C 11,2 C 12,6 C 12,6 C 1,4 C 64 % 70 % 37 % 1016,1 hPa 0,0 l/m 2,6 km/h (1 Bft) O-NO 67 0 min 0,8 UV-I 4,6 C 12,6 C 5,5 km/h (1 Bft)
11.10.2012 14:40 11,3 C 15,5 C 11,5 C 13,7 C 13,7 C 2,4 C 64 % 69 % 63 % 1016,1 hPa 0,0 l/m 4,0 km/h (1 Bft) O 90 0 min 0,8 UV-I 4,7 C 13,7 C 5,0 km/h (1 Bft)
11.10.2012 14:45 11,5 C 15,5 C 11,7 C 14,8 C 14,8 C 3,3 C 64 % 68 % 87 % 1015,8 hPa 0,0 l/m 3,9 km/h (1 Bft) O-NO 67 5 min 0,8 UV-I 4,9 C 14,8 C 5,5 km/h (1 Bft)
11.10.2012 14:50 11,5 C 15,5 C 11,8 C 16,3 C 16,3 C 4,8 C 62 % 68 % 100 % 1015,8 hPa 0,0 l/m 3,7 km/h (1 Bft) NO 45 5 min 0,8 UV-I 4,5 C 16,3 C 2,9 km/h (1 Bft)
11.10.2012 14:55 11,7 C 15,6 C 12,0 C 17,1 C 17,1 C 5,4 C 63 % 67 % 100 % 1015,8 hPa 0,0 l/m 3,4 km/h (1 Bft) O-NO 67 5 min 0,8 UV-I 4,9 C 17,1 C 3,5 km/h (1 Bft)
11.10.2012 15:00 11,7 C 15,6 C 12,0 C 16,7 C 16,7 C 5,0 C 64 % 68 % 100 % 1015,8 hPa 0,0 l/m 3,9 km/h (1 Bft) O-NO 67 5 min 0,7 UV-I 5,1 C 16,7 C 10,1 km/h (2 Bft)
11.10.2012 15:05 11,9 C 15,6 C 12,1 C 16,0 C 16,0 C 4,1 C 64 % 68 % 100 % 1015,6 hPa 0,0 l/m 5,1 km/h (1 Bft) O-SO 112 5 min 0,6 UV-I 5,3 C 16,0 C 3,5 km/h (1 Bft)
11.10.2012 15:10 12,0 C 15,5 C 12,3 C 17,0 C 17,0 C 5,0 C 64 % 68 % 100 % 1015,6 hPa 0,0 l/m 4,5 km/h (1 Bft) W-NW 292 5 min 0,6 UV-I 5,4 C 17,0 C 2,3 km/h (1 Bft)
11.10.2012 15:15 12,0 C 15,5 C 12,4 C 17,6 C 17,6 C 5,6 C 63 % 66 % 100 % 1015,6 hPa 0,0 l/m 3,5 km/h (1 Bft) O 90 5 min 0,6 UV-I 5,2 C 17,6 C 9,0 km/h (2 Bft)
11.10.2012 15:20 11,8 C 15,6 C 12,3 C 17,4 C 17,4 C 5,6 C 64 % 67 % 100 % 1015,6 hPa 0,0 l/m 4,3 km/h (1 Bft) O-NO 67 5 min 0,6 UV-I 5,2 C 17,4 C 2,4 km/h (1 Bft)
11.10.2012 15:25 11,9 C 15,6 C 12,4 C 17,6 C 17,6 C 5,7 C 64 % 67 % 100 % 1015,5 hPa 0,0 l/m 4,8 km/h (1 Bft) O-NO 67 5 min 0,6 UV-I 5,3 C 17,6 C 2,9 km/h (1 Bft)
11.10.2012 15:30 12,1 C 15,6 C 12,3 C 17,7 C 17,7 C 5,6 C 64 % 67 % 100 % 1015,5 hPa 0,0 l/m 3,2 km/h (1 Bft) O 90 5 min 0,5 UV-I 5,5 C 17,7 C 7,9 km/h (2 Bft)
11.10.2012 15:35 11,8 C 15,6 C 11,9 C 16,1 C 16,1 C 4,3 C 65 % 68 % 100 % 1015,5 hPa 0,0 l/m 3,5 km/h (1 Bft) O 90 5 min 0,4 UV-I 5,4 C 16,1 C 6,1 km/h (2 Bft)
11.10.2012 15:40 11,6 C 15,6 C 11,7 C 14,4 C 14,4 C 2,8 C 64 % 68 % 74 % 1015,5 hPa 0,0 l/m 4,3 km/h (1 Bft) O 90 0 min 0,3 UV-I 5,0 C 14,4 C 5,6 km/h (1 Bft)
11.10.2012 15:45 11,5 C 15,6 C 11,6 C 13,5 C 13,5 C 2,0 C 65 % 68 % 53 % 1015,6 hPa 0,0 l/m 4,0 km/h (1 Bft) O-NO 67 0 min 0,3 UV-I 5,2 C 13,5 C 5,1 km/h (1 Bft)
11.10.2012 15:50 11,3 C 15,6 C 11,5 C 12,7 C 12,7 C 1,4 C 66 % 69 % 37 % 1015,6 hPa 0,0 l/m 3,2 km/h (1 Bft) O-NO 67 0 min 0,3 UV-I 5,2 C 12,7 C 2,3 km/h (1 Bft)
11.10.2012 15:55 11,2 C 15,6 C 11,3 C 12,5 C 12,5 C 1,3 C 66 % 69 % 34 % 1015,6 hPa 0,0 l/m 2,7 km/h (1 Bft) O-SO 112 0 min 0,3 UV-I 5,1 C 12,5 C 1,8 km/h (1 Bft)
11.10.2012 16:00 11,2 C 15,6 C 11,4 C 13,1 C 13,1 C 1,9 C 66 % 70 % 50 % 1015,6 hPa 0,0 l/m 1,4 km/h (1 Bft) O-NO 67 0 min 0,3 UV-I 5,1 C 13,1 C 4,2 km/h (1 Bft)
11.10.2012 16:05 11,3 C 15,6 C 11,5 C 14,0 C 14,0 C 2,7 C 66 % 69 % 71 % 1015,9 hPa 0,0 l/m 1,4 km/h (1 Bft) SO 135 0 min 0,3 UV-I 5,2 C 14,0 C 0,0 km/h (0 Bft)
11.10.2012 16:10 11,4 C 15,7 C 11,6 C 14,9 C 14,9 C 3,5 C 66 % 70 % 92 % 1015,9 hPa 0,0 l/m 1,6 km/h (1 Bft) O-SO 112 5 min 0,2 UV-I 5,3 C 14,9 C 2,4 km/h (1 Bft)
11.10.2012 16:15 11,5 C 15,7 C 11,6 C 15,2 C 15,2 C 3,7 C 65 % 69 % 97 % 1015,9 hPa 0,0 l/m 0,6 km/h (0 Bft) NO 45 5 min 0,2 UV-I 5,2 C 15,2 C 0,0 km/h (0 Bft)
11.10.2012 16:20 11,6 C 15,7 C 11,5 C 14,7 C 14,7 C 3,1 C 65 % 69 % 82 % 1015,9 hPa 0,0 l/m 1,0 km/h (0 Bft) O-NO 67 5 min 0,2 UV-I 5,2 C 14,7 C 3,9 km/h (1 Bft)
11.10.2012 16:25 11,5 C 15,7 C 11,5 C 14,0 C 14,0 C 2,5 C 64 % 69 % 66 % 1015,5 hPa 0,0 l/m 2,4 km/h (1 Bft) O-NO 67 0 min 0,1 UV-I 4,9 C 14,0 C 7,6 km/h (2 Bft)
11.10.2012 16:30 11,3 C 15,7 C 11,4 C 13,5 C 13,5 C 2,2 C 66 % 70 % 58 % 1015,5 hPa 0,0 l/m 4,2 km/h (1 Bft) O-SO 112 0 min 0,1 UV-I 5,2 C 13,5 C 3,1 km/h (1 Bft)
11.10.2012 16:35 11,3 C 15,7 C 11,2 C 13,6 C 13,6 C 2,3 C 66 % 70 % 61 % 1015,5 hPa 0,0 l/m 3,7 km/h (1 Bft) O-NO 67 0 min 0,1 UV-I 5,2 C 13,6 C 2,6 km/h (1 Bft)
11.10.2012 16:40 11,2 C 15,7 C 11,3 C 14,0 C 14,0 C 2,8 C 67 % 70 % 74 % 1015,5 hPa 0,0 l/m 2,7 km/h (1 Bft) O-NO 67 5 min 0,1 UV-I 5,3 C 14,0 C 2,7 km/h (1 Bft)
11.10.2012 16:45 11,2 C 15,8 C 11,5 C 14,4 C 14,4 C 3,2 C 67 % 70 % 84 % 1015,5 hPa 0,0 l/m 2,4 km/h (1 Bft) O-NO 67 5 min 0,0 UV-I 5,3 C 14,4 C 2,4 km/h (1 Bft)
11.10.2012 16:50 11,1 C 15,9 C 11,3 C 14,7 C 14,7 C 3,6 C 66 % 70 % 95 % 1015,5 hPa 0,0 l/m 3,1 km/h (1 Bft) O-NO 67 5 min 0,0 UV-I 5,0 C 14,7 C 3,1 km/h (1 Bft)
11.10.2012 16:55 11,2 C 15,9 C 11,3 C 14,7 C 14,7 C 3,5 C 66 % 69 % 92 % 1015,5 hPa 0,0 l/m 4,0 km/h (1 Bft) O-NO 67 5 min 0,0 UV-I 5,1 C 14,7 C 7,9 km/h (2 Bft)
11.10.2012 17:00 11,2 C 15,9 C 11,3 C 14,4 C 14,4 C 3,2 C 65 % 68 % 84 % 1015,5 hPa 0,0 l/m 5,3 km/h (1 Bft) O 90 5 min 0,0 UV-I 4,9 C 14,4 C 10,3 km/h (2 Bft)
11.10.2012 17:05 11,2 C 15,9 C 11,2 C 14,3 C 14,3 C 3,1 C 66 % 69 % 82 % 1015,6 hPa 0,0 l/m 5,0 km/h (1 Bft) O-NO 67 5 min 0,0 UV-I 5,1 C 14,3 C 2,7 km/h (1 Bft)
11.10.2012 17:10 11,1 C 15,9 C 11,2 C 14,4 C 14,4 C 3,3 C 66 % 70 % 87 % 1015,6 hPa 0,0 l/m 3,7 km/h (1 Bft) O 90 5 min 0,0 UV-I 5,0 C 14,4 C 4,8 km/h (1 Bft)
11.10.2012 17:15 11,1 C 15,9 C 11,2 C 14,3 C 14,3 C 3,2 C 66 % 70 % 84 % 1015,6 hPa 0,0 l/m 3,4 km/h (1 Bft) O 90 5 min 0,0 UV-I 5,0 C 14,3 C 3,4 km/h (1 Bft)
11.10.2012 17:20 11,1 C 15,9 C 11,1 C 14,2 C 14,2 C 3,1 C 66 % 70 % 82 % 1015,6 hPa 0,0 l/m 3,7 km/h (1 Bft) O 90 5 min 0,0 UV-I 5,0 C 14,2 C 3,9 km/h (1 Bft)
11.10.2012 17:25 11,1 C 15,9 C 11,1 C 14,0 C 14,0 C 2,9 C 67 % 70 % 76 % 1015,1 hPa 0,0 l/m 3,5 km/h (1 Bft) S-SW 202 5 min 0,0 UV-I 5,2 C 14,0 C 3,5 km/h (1 Bft)
11.10.2012 17:30 11,1 C 15,9 C 11,1 C 13,8 C 13,8 C 2,7 C 67 % 70 % 71 % 1015,1 hPa 0,0 l/m 3,5 km/h (1 Bft) O-SO 112 5 min 0,0 UV-I 5,2 C 13,8 C 5,8 km/h (2 Bft)
11.10.2012 17:35 10,9 C 15,9 C 11,0 C 13,6 C 13,6 C 2,7 C 67 % 70 % 71 % 1015,1 hPa 0,0 l/m 3,4 km/h (1 Bft) O-SO 112 5 min 0,0 UV-I 5,0 C 13,6 C 5,5 km/h (1 Bft)
11.10.2012 17:40 10,8 C 15,9 C 10,9 C 13,4 C 13,4 C 2,6 C 67 % 71 % 68 % 1015,1 hPa 0,0 l/m 3,5 km/h (1 Bft) O-SO 112 5 min 0,0 UV-I 4,9 C 13,4 C 5,8 km/h (2 Bft)
11.10.2012 17:45 10,8 C 15,9 C 10,8 C 13,1 C 13,1 C 2,3 C 67 % 71 % 61 % 1014,9 hPa 0,0 l/m 3,7 km/h (1 Bft) O-SO 112 5 min 0,0 UV-I 4,9 C 13,1 C 3,9 km/h (1 Bft)
11.10.2012 17:50 10,7 C 15,9 C 10,7 C 12,7 C 12,7 C 2,0 C 68 % 71 % 53 % 1014,9 hPa 0,0 l/m 3,7 km/h (1 Bft) O-SO 112 5 min 0,0 UV-I 5,0 C 12,7 C 5,0 km/h (1 Bft)
11.10.2012 17:55 10,7 C 15,9 C 10,7 C 12,4 C 12,4 C 1,7 C 68 % 71 % 45 % 1014,9 hPa 0,0 l/m 3,5 km/h (1 Bft) O 90 5 min 0,0 UV-I 5,0 C 12,4 C 4,0 km/h (1 Bft)
11.10.2012 18:00 10,4 C 15,9 C 10,5 C 11,9 C 11,9 C 1,5 C 68 % 72 % 39 % 1014,9 hPa 0,0 l/m 3,7 km/h (1 Bft) O-NO 67 5 min 0,0 UV-I 4,8 C 11,9 C 4,5 km/h (1 Bft)
11.10.2012 18:05 10,4 C 15,9 C 10,4 C 11,5 C 11,5 C 1,1 C 69 % 72 % 29 % 1015,0 hPa 0,0 l/m 3,7 km/h (1 Bft) O 90 5 min 0,0 UV-I 5,0 C 11,5 C 4,0 km/h (1 Bft)
11.10.2012 18:10 10,3 C 15,9 C 10,2 C 10,9 C 10,9 C 0,6 C 69 % 73 % 16 % 1015,0 hPa 0,0 l/m 3,7 km/h (1 Bft) O-NO 67 5 min 0,0 UV-I 4,9 C 10,9 C 3,7 km/h (1 Bft)
11.10.2012 18:15 10,1 C 15,9 C 10,0 C 10,6 C 10,6 C 0,5 C 69 % 73 % 0 % 1015,0 hPa 0,0 l/m 3,4 km/h (1 Bft) O 90 0 min 0,0 UV-I 4,7 C 10,6 C 3,2 km/h (1 Bft)
11.10.2012 18:20 9,9 C 15,9 C 9,9 C 10,1 C 10,1 C 0,2 C 70 % 74 % 0 % 1015,0 hPa 0,0 l/m 3,2 km/h (1 Bft) O-NO 67 0 min 0,0 UV-I 4,7 C 10,1 C 3,1 km/h (1 Bft)
11.10.2012 18:25 9,9 C 15,9 C 9,7 C 9,8 C 9,6 C 0,0 C 70 % 74 % 0 % 1014,9 hPa 0,0 l/m 3,1 km/h (1 Bft) O-NO 67 0 min 0,0 UV-I 4,7 C 9,6 C 3,4 km/h (1 Bft)
11.10.2012 18:30 9,6 C 15,9 C 9,6 C 9,4 C 9,1 C 0,0 C 71 % 74 % 0 % 1014,9 hPa 0,0 l/m 2,9 km/h (1 Bft) O-NO 67 0 min 0,0 UV-I 4,6 C 9,1 C 2,7 km/h (1 Bft)
11.10.2012 18:35 9,5 C 15,9 C 9,5 C 9,3 C 8,8 C 0,0 C 71 % 75 % 0 % 1014,9 hPa 0,0 l/m 2,9 km/h (1 Bft) O-NO 67 0 min 0,0 UV-I 4,5 C 8,8 C 2,7 km/h (1 Bft)
11.10.2012 18:46 8,9 C 15,9 C 9,0 C 8,6 C 8,0 C 0,0 C 72 % 76 % 0 % 1015,2 hPa 0,0 l/m 1,6 km/h (1 Bft) N 0 0 min 0,0 UV-I 4,1 C 8,0 C 2,1 km/h (1 Bft)
11.10.2012 18:55 8,9 C 16,0 C 8,7 C 8,5 C 7,7 C 0,0 C 73 % 76 % 0 % 1015,2 hPa 0,0 l/m 0,6 km/h (0 Bft) O-NO 67 0 min 0,0 UV-I 4,3 C 7,7 C 0,0 km/h (0 Bft)
11.10.2012 19:00 8,6 C 16,0 C 8,3 C 8,2 C 7,4 C 0,0 C 73 % 77 % 0 % 1015,2 hPa 0,0 l/m 0,2 km/h (0 Bft) O-NO 67 0 min 0,0 UV-I 4,0 C 7,4 C 0,0 km/h (0 Bft)
11.10.2012 19:05 8,4 C 16,0 C 8,1 C 8,0 C 7,2 C 0,0 C 74 % 77 % 0 % 1015,1 hPa 0,0 l/m 0,0 km/h (0 Bft) O-NO 67 0 min 0,0 UV-I 4,0 C 7,2 C 0,0 km/h (0 Bft)
11.10.2012 19:10 8,2 C 16,1 C 8,0 C 7,7 C 6,8 C 0,0 C 75 % 78 % 0 % 1015,1 hPa 0,0 l/m 0,0 km/h (0 Bft) O-NO 67 0 min 0,0 UV-I 4,0 C 6,8 C 0,0 km/h (0 Bft)
11.10.2012 19:15 8,0 C 16,0 C 7,9 C 7,5 C 6,5 C 0,0 C 75 % 78 % 0 % 1015,1 hPa 0,0 l/m 0,0 km/h (0 Bft) NO 45 0 min 0,0 UV-I 3,8 C 6,5 C 0,0 km/h (0 Bft)
11.10.2012 19:20 7,9 C 16,1 C 7,6 C 7,4 C 6,3 C 0,0 C 76 % 79 % 0 % 1015,1 hPa 0,0 l/m 0,0 km/h (0 Bft) NO 45 0 min 0,0 UV-I 3,9 C 6,3 C 0,0 km/h (0 Bft)
11.10.2012 19:25 7,7 C 16,1 C 7,5 C 7,2 C 6,1 C 0,0 C 76 % 80 % 0 % 1015,1 hPa 0,0 l/m 0,0 km/h (0 Bft) O-NO 67 0 min 0,0 UV-I 3,7 C 6,1 C 0,0 km/h (0 Bft)
11.10.2012 19:30 7,6 C 16,1 C 7,4 C 7,1 C 6,0 C 0,0 C 77 % 80 % 0 % 1015,1 hPa 0,0 l/m 0,0 km/h (0 Bft) O-NO 67 0 min 0,0 UV-I 3,8 C 6,0 C 0,0 km/h (0 Bft)
11.10.2012 19:35 7,5 C 16,0 C 7,2 C 7,0 C 5,9 C 0,0 C 77 % 80 % 0 % 1015,1 hPa 0,0 l/m 0,0 km/h (0 Bft) N-NO 22 0 min 0,0 UV-I 3,7 C 5,9 C 0,0 km/h (0 Bft)
11.10.2012 19:40 7,5 C 16,0 C 7,2 C 7,0 C 5,9 C 0,0 C 77 % 81 % 0 % 1015,1 hPa 0,0 l/m 0,2 km/h (0 Bft) NO 45 0 min 0,0 UV-I 3,7 C 5,9 C 0,0 km/h (0 Bft)
11.10.2012 19:45 7,2 C 16,1 C 7,0 C 6,8 C 5,9 C 0,0 C 78 % 81 % 0 % 1015,3 hPa 0,0 l/m 0,2 km/h (0 Bft) NO 45 0 min 0,0 UV-I 3,6 C 5,9 C 0,0 km/h (0 Bft)
11.10.2012 19:50 7,1 C 16,1 C 7,1 C 6,7 C 5,8 C 0,0 C 78 % 81 % 0 % 1015,3 hPa 0,0 l/m 0,3 km/h (0 Bft) O 90 0 min 0,0 UV-I 3,5 C 5,8 C 2,3 km/h (1 Bft)
11.10.2012 19:55 7,1 C 16,1 C 6,9 C 6,7 C 5,9 C 0,0 C 79 % 81 % 0 % 1015,3 hPa 0,0 l/m 0,5 km/h (0 Bft) O 90 0 min 0,0 UV-I 3,7 C 5,9 C 0,0 km/h (0 Bft)
11.10.2012 20:00 6,8 C 16,1 C 6,8 C 6,4 C 5,7 C 0,0 C 79 % 82 % 0 % 1015,3 hPa 0,0 l/m 0,2 km/h (0 Bft) NO 45 0 min 0,0 UV-I 3,4 C 5,7 C 0,0 km/h (0 Bft)
11.10.2012 20:05 6,8 C 16,1 C 6,8 C 6,4 C 5,7 C 0,0 C 79 % 82 % 0 % 1015,1 hPa 0,0 l/m 0,0 km/h (0 Bft) N-NW 337 0 min 0,0 UV-I 3,4 C 5,7 C 0,0 km/h (0 Bft)
11.10.2012 20:10 6,7 C 16,1 C 6,8 C 6,3 C 5,4 C 0,0 C 79 % 82 % 0 % 1015,1 hPa 0,0 l/m 0,0 km/h (0 Bft) N-NO 22 0 min 0,0 UV-I 3,3 C 5,4 C 0,0 km/h (0 Bft)
11.10.2012 20:15 6,4 C 16,1 C 6,7 C 6,0 C 5,1 C 0,0 C 79 % 82 % 0 % 1015,1 hPa 0,0 l/m 0,0 km/h (0 Bft) N-NW 337 0 min 0,0 UV-I 3,0 C 5,1 C 0,0 km/h (0 Bft)
11.10.2012 20:20 6,2 C 16,1 C 6,7 C 5,7 C 4,7 C 0,0 C 79 % 82 % 0 % 1015,1 hPa 0,0 l/m 0,0 km/h (0 Bft) W 270 0 min 0,0 UV-I 2,8 C 4,7 C 0,0 km/h (0 Bft)
11.10.2012 20:25 6,0 C 16,1 C 6,7 C 5,5 C 4,5 C 0,0 C 80 % 83 % 0 % 1015,1 hPa 0,0 l/m 0,0 km/h (0 Bft) O-NO 67 0 min 0,0 UV-I 2,8 C 4,5 C 0,0 km/h (0 Bft)
11.10.2012 20:30 5,7 C 16,0 C 6,5 C 5,3 C 4,4 C 0,0 C 80 % 83 % 0 % 1015,1 hPa 0,0 l/m 0,0 km/h (0 Bft) NO 45 0 min 0,0 UV-I 2,5 C 4,4 C 0,0 km/h (0 Bft)
11.10.2012 20:35 5,6 C 16,1 C 6,5 C 5,3 C 4,6 C 0,0 C 81 % 83 % 0 % 1015,1 hPa 0,0 l/m 0,3 km/h (0 Bft) NO 45 0 min 0,0 UV-I 2,6 C 4,6 C 0,0 km/h (0 Bft)
11.10.2012 20:40 5,4 C 16,1 C 6,4 C 5,2 C 4,9 C 0,0 C 81 % 84 % 0 % 1015,1 hPa 0,0 l/m 0,3 km/h (0 Bft) S 180 0 min 0,0 UV-I 2,4 C 4,9 C 0,0 km/h (0 Bft)
11.10.2012 20:45 5,3 C 16,0 C 6,4 C 5,2 C 4,9 C 0,0 C 81 % 84 % 0 % 1015,1 hPa 0,0 l/m 0,2 km/h (0 Bft) W-SW 247 0 min 0,0 UV-I 2,3 C 4,9 C 0,0 km/h (0 Bft)
11.10.2012 20:50 5,2 C 16,1 C 6,3 C 5,0 C 4,6 C 0,0 C 81 % 84 % 0 % 1015,1 hPa 0,0 l/m 0,0 km/h (0 Bft) W 270 0 min 0,0 UV-I 2,2 C 4,6 C 0,0 km/h (0 Bft)
11.10.2012 20:55 5,1 C 16,2 C 6,1 C 4,9 C 4,4 C 0,0 C 82 % 84 % 0 % 1015,1 hPa 0,0 l/m 0,0 km/h (0 Bft) NW 315 0 min 0,0 UV-I 2,3 C 4,4 C 0,0 km/h (0 Bft)
11.10.2012 21:00 4,8 C 16,2 C 6,0 C 4,6 C 4,2 C 0,0 C 82 % 84 % 0 % 1015,1 hPa 0,0 l/m 0,0 km/h (0 Bft) N-NW 337 0 min 0,0 UV-I 2,0 C 4,2 C 0,0 km/h (0 Bft)
11.10.2012 21:05 4,8 C 16,2 C 5,9 C 4,6 C 4,3 C 0,0 C 83 % 84 % 0 % 1014,9 hPa 0,0 l/m 0,0 km/h (0 Bft) NW 315 0 min 0,0 UV-I 2,2 C 4,3 C 0,0 km/h (0 Bft)
11.10.2012 21:10 4,7 C 16,1 C 5,9 C 4,5 C 4,2 C 0,0 C 83 % 84 % 0 % 1014,9 hPa 0,0 l/m 0,0 km/h (0 Bft) N-NW 337 0 min 0,0 UV-I 2,1 C 4,2 C 0,0 km/h (0 Bft)
11.10.2012 21:15 4,7 C 16,2 C 5,8 C 4,5 C 4,0 C 0,0 C 83 % 84 % 0 % 1014,9 hPa 0,0 l/m 0,0 km/h (0 Bft) N-NW 337 0 min 0,0 UV-I 2,1 C 4,0 C 0,0 km/h (0 Bft)
11.10.2012 21:20 4,5 C 16,1 C 5,9 C 4,3 C 4,0 C 0,0 C 83 % 85 % 0 % 1014,9 hPa 0,0 l/m 0,0 km/h (0 Bft) NW 315 0 min 0,0 UV-I 1,9 C 4,0 C 0,0 km/h (0 Bft)
11.10.2012 21:25 4,4 C 16,1 C 5,9 C 4,2 C 3,9 C 0,0 C 83 % 85 % 0 % 1014,9 hPa 0,0 l/m 0,0 km/h (0 Bft) NW 315 0 min 0,0 UV-I 1,8 C 3,9 C 0,0 km/h (0 Bft)
11.10.2012 21:30 4,3 C 16,1 C 5,7 C 4,1 C 3,7 C 0,0 C 83 % 85 % 0 % 1014,9 hPa 0,0 l/m 0,0 km/h (0 Bft) N 360 0 min 0,0 UV-I 1,7 C 3,7 C 0,0 km/h (0 Bft)
11.10.2012 21:35 4,3 C 16,1 C 5,7 C 4,1 C 3,7 C 0,0 C 83 % 85 % 0 % 1014,9 hPa 0,0 l/m 0,0 km/h (0 Bft) W-NW 292 0 min 0,0 UV-I 1,7 C 3,7 C 0,0 km/h (0 Bft)
11.10.2012 21:40 4,3 C 16,1 C 5,6 C 4,2 C 3,9 C 0,0 C 84 % 85 % 0 % 1014,9 hPa 0,0 l/m 0,0 km/h (0 Bft) N-NO 22 0 min 0,0 UV-I 1,8 C 3,9 C 0,0 km/h (0 Bft)
11.10.2012 21:45 4,4 C 16,1 C 5,6 C 4,3 C 4,2 C 0,0 C 85 % 85 % 0 % 1015,3 hPa 0,0 l/m 1,0 km/h (0 Bft) O-NO 67 0 min 0,0 UV-I 2,1 C 4,2 C 3,4 km/h (1 Bft)
11.10.2012 21:50 4,7 C 16,1 C 5,6 C 4,7 C 4,6 C 0,0 C 85 % 85 % 0 % 1015,3 hPa 0,0 l/m 1,3 km/h (1 Bft) N-NO 22 0 min 0,0 UV-I 2,4 C 4,6 C 0,0 km/h (0 Bft)
11.10.2012 21:55 4,7 C 16,1 C 5,6 C 4,6 C 4,5 C 0,0 C 84 % 85 % 0 % 1015,3 hPa 0,0 l/m 0,8 km/h (0 Bft) N-NO 22 0 min 0,0 UV-I 2,2 C 4,5 C 1,6 km/h (1 Bft)
11.10.2012 22:00 4,7 C 16,1 C 5,5 C 4,6 C 4,5 C 0,0 C 84 % 85 % 0 % 1015,3 hPa 0,0 l/m 0,2 km/h (0 Bft) N-NO 22 0 min 0,0 UV-I 2,2 C 4,5 C 0,0 km/h (0 Bft)
11.10.2012 22:05 4,7 C 16,1 C 5,4 C 4,6 C 4,4 C 0,0 C 84 % 86 % 0 % 1015,3 hPa 0,0 l/m 0,2 km/h (0 Bft) N-NW 337 0 min 0,0 UV-I 2,2 C 4,4 C 0,0 km/h (0 Bft)
11.10.2012 22:10 4,5 C 16,1 C 5,3 C 4,3 C 4,0 C 0,0 C 83 % 86 % 0 % 1015,3 hPa 0,0 l/m 0,2 km/h (0 Bft) S-SW 202 0 min 0,0 UV-I 1,9 C 4,0 C 1,9 km/h (1 Bft)
11.10.2012 22:15 4,5 C 16,1 C 5,3 C 4,4 C 4,1 C 0,0 C 84 % 86 % 0 % 1015,3 hPa 0,0 l/m 0,3 km/h (0 Bft) N 360 0 min 0,0 UV-I 2,0 C 4,1 C 0,0 km/h (0 Bft)
11.10.2012 22:20 4,5 C 16,1 C 5,3 C 4,4 C 4,2 C 0,0 C 83 % 86 % 0 % 1015,3 hPa 0,0 l/m 0,3 km/h (0 Bft) O-NO 67 0 min 0,0 UV-I 1,9 C 4,2 C 0,0 km/h (0 Bft)
11.10.2012 22:25 4,4 C 16,1 C 5,1 C 4,3 C 4,2 C 0,0 C 83 % 86 % 0 % 1015,4 hPa 0,0 l/m 0,0 km/h (0 Bft) O-NO 67 0 min 0,0 UV-I 1,8 C 4,2 C 0,0 km/h (0 Bft)
11.10.2012 22:30 4,5 C 16,1 C 5,1 C 4,4 C 4,1 C 0,0 C 84 % 86 % 0 % 1015,4 hPa 0,0 l/m 0,0 km/h (0 Bft) NO 45 0 min 0,0 UV-I 2,0 C 4,1 C 0,0 km/h (0 Bft)
11.10.2012 22:35 4,4 C 16,1 C 5,0 C 4,2 C 3,9 C 0,0 C 83 % 86 % 0 % 1015,4 hPa 0,0 l/m 0,0 km/h (0 Bft) N-NO 22 0 min 0,0 UV-I 1,8 C 3,9 C 0,0 km/h (0 Bft)
11.10.2012 22:40 4,3 C 16,1 C 5,0 C 4,1 C 3,7 C 0,0 C 83 % 86 % 0 % 1015,4 hPa 0,0 l/m 0,0 km/h (0 Bft) O-NO 67 0 min 0,0 UV-I 1,7 C 3,7 C 0,0 km/h (0 Bft)
11.10.2012 22:45 4,2 C 16,1 C 5,0 C 4,0 C 3,5 C 0,0 C 83 % 86 % 0 % 1015,4 hPa 0,0 l/m 0,0 km/h (0 Bft) NO 45 0 min 0,0 UV-I 1,6 C 3,5 C 0,0 km/h (0 Bft)
11.10.2012 22:50 4,0 C 16,1 C 4,9 C 3,9 C 3,6 C 0,0 C 84 % 86 % 0 % 1015,4 hPa 0,0 l/m 0,0 km/h (0 Bft) N-NO 22 0 min 0,0 UV-I 1,5 C 3,6 C 0,0 km/h (0 Bft)
11.10.2012 22:55 4,1 C 16,1 C 4,9 C 3,9 C 3,6 C 0,0 C 84 % 86 % 0 % 1015,4 hPa 0,0 l/m 0,0 km/h (0 Bft) NO 45 0 min 0,0 UV-I 1,6 C 3,6 C 0,0 km/h (0 Bft)
11.10.2012 23:00 3,9 C 16,0 C 4,8 C 3,7 C 3,4 C 0,0 C 84 % 86 % 0 % 1015,4 hPa 0,0 l/m 0,0 km/h (0 Bft) N 360 0 min 0,0 UV-I 1,4 C 3,4 C 0,0 km/h (0 Bft)
11.10.2012 23:05 3,9 C 16,0 C 4,8 C 3,7 C 3,3 C 0,0 C 84 % 87 % 0 % 1015,2 hPa 0,0 l/m 0,0 km/h (0 Bft) N-NW 337 0 min 0,0 UV-I 1,4 C 3,3 C 0,0 km/h (0 Bft)
11.10.2012 23:10 3,7 C 16,0 C 4,7 C 3,5 C 3,2 C 0,0 C 84 % 87 % 0 % 1015,2 hPa 0,0 l/m 0,0 km/h (0 Bft) N-NO 22 0 min 0,0 UV-I 1,3 C 3,2 C 0,0 km/h (0 Bft)
11.10.2012 23:15 3,7 C 16,0 C 4,6 C 3,5 C 3,2 C 0,0 C 84 % 86 % 0 % 1015,2 hPa 0,0 l/m 0,0 km/h (0 Bft) NO 45 0 min 0,0 UV-I 1,3 C 3,2 C 0,0 km/h (0 Bft)
11.10.2012 23:20 3,6 C 16,0 C 4,5 C 3,5 C 3,2 C 0,0 C 84 % 86 % 0 % 1015,2 hPa 0,0 l/m 0,0 km/h (0 Bft) N-NO 22 0 min 0,0 UV-I 1,2 C 3,2 C 0,0 km/h (0 Bft)
11.10.2012 23:25 3,6 C 16,0 C 4,5 C 3,5 C 3,2 C 0,0 C 84 % 87 % 0 % 1015,1 hPa 0,0 l/m 0,0 km/h (0 Bft) N-NO 22 0 min 0,0 UV-I 1,2 C 3,2 C 0,0 km/h (0 Bft)
11.10.2012 23:30 3,7 C 15,9 C 4,5 C 3,5 C 3,2 C 0,0 C 85 % 87 % 0 % 1015,1 hPa 0,0 l/m 0,6 km/h (0 Bft) O-NO 67 0 min 0,0 UV-I 1,4 C 3,2 C 1,6 km/h (1 Bft)
11.10.2012 23:35 3,6 C 15,9 C 4,6 C 3,5 C 3,3 C 0,0 C 85 % 87 % 0 % 1015,1 hPa 0,0 l/m 0,6 km/h (0 Bft) N-NO 22 0 min 0,0 UV-I 1,3 C 3,3 C 0,0 km/h (0 Bft)
11.10.2012 23:40 3,6 C 15,9 C 4,7 C 3,5 C 3,2 C 0,0 C 84 % 87 % 0 % 1015,1 hPa 0,0 l/m 0,3 km/h (0 Bft) S 180 0 min 0,0 UV-I 1,2 C 3,2 C 0,0 km/h (0 Bft)
11.10.2012 23:45 3,5 C 15,9 C 4,5 C 3,3 C 3,0 C 0,0 C 84 % 87 % 0 % 1015,2 hPa 0,0 l/m 0,0 km/h (0 Bft) S 180 0 min 0,0 UV-I 1,1 C 3,0 C 0,0 km/h (0 Bft)
11.10.2012 23:50 3,5 C 15,9 C 4,4 C 3,2 C 2,6 C 0,0 C 84 % 87 % 0 % 1015,2 hPa 0,0 l/m 0,0 km/h (0 Bft) NW 315 0 min 0,0 UV-I 1,1 C 2,6 C 0,0 km/h (0 Bft)
11.10.2012 23:55 3,2 C 15,9 C 4,3 C 3,0 C 2,5 C 0,0 C 84 % 87 % 0 % 1015,2 hPa 0,0 l/m 0,0 km/h (0 Bft) NW 315 0 min 0,0 UV-I 0,8 C 2,5 C 0,0 km/h (0 Bft)
_ Min-Zeit 23:55 11:50 23:55 23:55 23:55 03:45 13:45 13:50 00:00 17:45 - 00:00 - - - 00:00 23:55 23:55 00:00
Minimum _ 3,2 C 15,3 C 4,3 C 3,0 C 2,5 C 0,0 C 62 % 66 % 0 % 1014,9 hPa - 0,0 km/h (0 Bft) - - - 0,0 UV-I 0,8 C 2,5 C 0,0 km/h (0 Bft)
_ Max-Zeit 15:30 20:55 15:15 12:55 12:55 12:55 00:00 06:46 12:30 01:45 00:00 17:00 - - 12:46 12:55 12:55 12:55 17:00
Maximum _ 12,1 C 16,2 C 12,4 C 21,2 C 21,2 C 9,7 C 87 % 90 % 100 % 1018,1 hPa 0,0 l/m 5,3 km/h
O (1 Bft)
- - 11 min 1,7 UV-I 6,2 C 21,2 C 10,3 km/h
O (2 Bft)
Durchschnitt _ 7,2 C 15,7 C 8,0 C 8,9 C 8,7 C 1,7 C 79 % 82 % 30 % 1016,7 hPa #0,0 l/m 1,2 km/h (1 Bft) O-NO - #5:30 h 0,7 UV-I 3,7 C 8,7 C 1,5 km/h (1 Bft)
2012 www.wetterstation-wechselburg.de